Price, UT

10:20 AM MDT on August 21, 2014 (GMT -0600)
Carbon County | Change Station
CLOSE
Current Station
Airport
Location: Price,
Elevation: 5955 ft
Nearby Weather Stations

Elev 5955 ft 39.61 °N, 110.75 °W | Updated 27 minutes ago

Clear
Clear
67 °F
Feels Like 67 °F
N
0
Wind Variable Wind from North

Today
High -- | Low -- °F
--% Chance of Precip.
Yesterday
High -- | Low -- °F
Precip. -- in
6:42 AM 8:10 PM
Waning Crescent, 13% visible
Pressure 30.01 in
Visibility 10.0 miles
Clouds Clear
Dew Point 48 °F
Humidity 51%
Rainfall 0.00 in
Snow Depth Not available.
UV 5 out of 12
Pollen 8.10 out of 12
Air Quality Not available.
Flu Activity Not available.
METAR KPUC 211553Z AUTO 00000KT 10SM CLR 19/09 A3020 RMK AO2 SLP163 T01940089

More Conditions Fewer Conditions

Pressure 30.01 in
Visibility 10.0 miles
Clouds Clear
Dew Point 48 °F
Humidity 51%
Rainfall 0.00 in
Snow Depth Not available.
UV 5 out of 12
Pollen 8.10 out of 12
Air Quality Not available.
Flu Activity Not available.
METAR KPUC 211553Z AUTO 00000KT 10SM CLR 19/09 A3020 RMK AO2 SLP163 T01940089

More Conditions Fewer Conditions

10-Day Weather Forecast

Almanac

Astronomy

Aug. 21, 2014 Rise Set
Actual Time 6:42 AM MDT 8:10 PM MDT
Civil Twilight 6:13 AM MDT 8:39 PM MDT
Nautical Twilight 5:39 AM MDT 9:12 PM MDT
Astronomical Twilight 5:04 AM MDT 9:48 PM MDT
Moon 3:16 AM MDT 5:41 PM MDT
Length of Visible Light 14h 25m
Length of Day
13h 28m
Tomorrow will be 2m 21s shorter.
Waning Crescent, 13% of the Moon is Illuminated
Today
Waning Crescent
Aug 25
New
Sep 2
First Quarter
Sep 8
Full
Sep 15
Last Quarter

Today's Extremes

State Highs State Lows

Community

WunderPhotos

Upload Photos

1,745,955 photos uploaded!

Nearby

Snow Depth

Station Depth Elevation
Clear Creek #1 0 in 9200 ft
Clear Creek #2 1 in 8300 ft
White River #1 0 in 8550 ft
Farnsworth Lake 0 in 9600 ft
Strawberry Divide 0 in 8400 ft

Earthquake Activity

City Distance Mag. Time & Date
No recent earthquake activity has been reported nearby.
Minimum magnitude displayed is 2.5.

Coastal Water Temperatures

Place Temperature
No Stations Reporting

Nearby Weather Stations